sensor_id;sensor_type;location;lat;lon;timestamp;P1;durP1;ratioP1;P2;durP2;ratioP2
18776;SDS011;9517;51.174;4.160;2023-06-10T00:00:41;14.40;;;8.50;;
18776;SDS011;9517;51.174;4.160;2023-06-10T00:03:09;16.37;;;9.10;;
18776;SDS011;9517;51.174;4.160;2023-06-10T00:05:39;18.83;;;9.63;;
18776;SDS011;9517;51.174;4.160;2023-06-10T00:08:07;15.10;;;8.37;;
18776;SDS011;9517;51.174;4.160;2023-06-10T00:10:35;16.80;;;9.70;;
18776;SDS011;9517;51.174;4.160;2023-06-10T00:13:04;15.17;;;9.00;;
18776;SDS011;9517;51.174;4.160;2023-06-10T00:15:33;15.17;;;9.20;;
18776;SDS011;9517;51.174;4.160;2023-06-10T00:18:01;14.30;;;9.00;;
18776;SDS011;9517;51.174;4.160;2023-06-10T00:20:29;16.20;;;8.90;;
18776;SDS011;9517;51.174;4.160;2023-06-10T00:22:57;14.73;;;8.73;;
18776;SDS011;9517;51.174;4.160;2023-06-10T00:25:28;13.97;;;8.60;;
18776;SDS011;9517;51.174;4.160;2023-06-10T00:27:55;15.50;;;9.00;;
18776;SDS011;9517;51.174;4.160;2023-06-10T00:30:22;16.43;;;8.60;;
18776;SDS011;9517;51.174;4.160;2023-06-10T00:32:49;16.43;;;9.20;;
18776;SDS011;9517;51.174;4.160;2023-06-10T00:35:16;14.33;;;9.50;;
18776;SDS011;9517;51.174;4.160;2023-06-10T00:37:43;17.70;;;9.00;;
18776;SDS011;9517;51.174;4.160;2023-06-10T00:40:11;15.30;;;9.40;;
18776;SDS011;9517;51.174;4.160;2023-06-10T00:42:40;16.73;;;9.00;;
18776;SDS011;9517;51.174;4.160;2023-06-10T00:45:07;17.70;;;9.23;;
18776;SDS011;9517;51.174;4.160;2023-06-10T00:47:35;17.43;;;9.17;;
18776;SDS011;9517;51.174;4.160;2023-06-10T00:50:02;16.63;;;8.70;;
18776;SDS011;9517;51.174;4.160;2023-06-10T00:52:30;15.20;;;8.53;;
18776;SDS011;9517;51.174;4.160;2023-06-10T00:54:58;15.50;;;8.80;;
18776;SDS011;9517;51.174;4.160;2023-06-10T00:57:25;15.80;;;9.33;;
18776;SDS011;9517;51.174;4.160;2023-06-10T00:59:55;15.03;;;10.10;;
18776;SDS011;9517;51.174;4.160;2023-06-10T01:02:23;15.77;;;9.10;;
18776;SDS011;9517;51.174;4.160;2023-06-10T01:04:51;17.27;;;9.63;;
18776;SDS011;9517;51.174;4.160;2023-06-10T01:07:20;16.87;;;9.50;;
18776;SDS011;9517;51.174;4.160;2023-06-10T01:09:54;14.37;;;9.53;;
18776;SDS011;9517;51.174;4.160;2023-06-10T01:12:26;16.13;;;9.00;;
18776;SDS011;9517;51.174;4.160;2023-06-10T01:15:00;15.80;;;9.47;;
18776;SDS011;9517;51.174;4.160;2023-06-10T01:17:29;18.13;;;9.53;;
18776;SDS011;9517;51.174;4.160;2023-06-10T01:19:57;19.37;;;9.97;;
18776;SDS011;9517;51.174;4.160;2023-06-10T01:22:26;17.33;;;9.53;;
18776;SDS011;9517;51.174;4.160;2023-06-10T01:24:57;14.47;;;9.40;;
18776;SDS011;9517;51.174;4.160;2023-06-10T01:27:26;16.80;;;10.03;;
18776;SDS011;9517;51.174;4.160;2023-06-10T01:29:58;15.60;;;9.57;;
18776;SDS011;9517;51.174;4.160;2023-06-10T01:32:32;14.30;;;9.73;;
18776;SDS011;9517;51.174;4.160;2023-06-10T01:35:04;16.80;;;9.77;;
18776;SDS011;9517;51.174;4.160;2023-06-10T01:37:36;15.47;;;9.70;;
18776;SDS011;9517;51.174;4.160;2023-06-10T01:40:05;17.43;;;9.43;;
18776;SDS011;9517;51.174;4.160;2023-06-10T01:42:33;17.63;;;10.17;;
18776;SDS011;9517;51.174;4.160;2023-06-10T01:45:01;17.07;;;9.67;;
18776;SDS011;9517;51.174;4.160;2023-06-10T01:47:28;18.50;;;10.43;;
18776;SDS011;9517;51.174;4.160;2023-06-10T01:49:55;18.20;;;10.50;;
18776;SDS011;9517;51.174;4.160;2023-06-10T01:52:22;18.33;;;10.43;;
18776;SDS011;9517;51.174;4.160;2023-06-10T01:54:51;20.90;;;9.90;;
18776;SDS011;9517;51.174;4.160;2023-06-10T01:57:18;15.73;;;9.63;;
18776;SDS011;9517;51.174;4.160;2023-06-10T01:59:45;17.40;;;9.93;;
18776;SDS011;9517;51.174;4.160;2023-06-10T02:02:13;16.33;;;10.10;;
18776;SDS011;9517;51.174;4.160;2023-06-10T02:04:40;25.10;;;10.13;;
18776;SDS011;9517;51.174;4.160;2023-06-10T02:07:07;17.60;;;10.53;;
18776;SDS011;9517;51.174;4.160;2023-06-10T02:09:34;19.87;;;10.70;;
18776;SDS011;9517;51.174;4.160;2023-06-10T02:12:03;18.33;;;10.40;;
18776;SDS011;9517;51.174;4.160;2023-06-10T02:14:32;16.33;;;9.60;;
18776;SDS011;9517;51.174;4.160;2023-06-10T02:17:00;17.30;;;9.73;;
18776;SDS011;9517;51.174;4.160;2023-06-10T02:19:27;17.27;;;10.57;;
18776;SDS011;9517;51.174;4.160;2023-06-10T02:21:55;18.80;;;10.07;;
18776;SDS011;9517;51.174;4.160;2023-06-10T02:24:23;20.23;;;10.20;;
18776;SDS011;9517;51.174;4.160;2023-06-10T02:26:50;16.13;;;10.30;;
18776;SDS011;9517;51.174;4.160;2023-06-10T02:29:19;16.00;;;10.10;;
18776;SDS011;9517;51.174;4.160;2023-06-10T02:31:47;20.20;;;10.07;;
18776;SDS011;9517;51.174;4.160;2023-06-10T02:34:14;16.93;;;10.13;;
18776;SDS011;9517;51.174;4.160;2023-06-10T02:36:41;16.43;;;10.03;;
18776;SDS011;9517;51.174;4.160;2023-06-10T02:39:08;20.87;;;10.93;;
18776;SDS011;9517;51.174;4.160;2023-06-10T02:41:35;15.23;;;10.20;;
18776;SDS011;9517;51.174;4.160;2023-06-10T02:44:03;19.50;;;10.77;;
18776;SDS011;9517;51.174;4.160;2023-06-10T02:46:31;14.93;;;10.07;;
18776;SDS011;9517;51.174;4.160;2023-06-10T02:48:59;15.70;;;9.93;;
18776;SDS011;9517;51.174;4.160;2023-06-10T02:51:26;16.80;;;10.47;;
18776;SDS011;9517;51.174;4.160;2023-06-10T02:53:54;19.77;;;11.00;;
18776;SDS011;9517;51.174;4.160;2023-06-10T02:56:21;15.87;;;10.43;;
18776;SDS011;9517;51.174;4.160;2023-06-10T02:58:48;16.50;;;10.67;;
18776;SDS011;9517;51.174;4.160;2023-06-10T03:01:16;20.83;;;11.10;;
18776;SDS011;9517;51.174;4.160;2023-06-10T03:03:45;18.73;;;11.10;;
18776;SDS011;9517;51.174;4.160;2023-06-10T03:06:13;16.37;;;10.57;;
18776;SDS011;9517;51.174;4.160;2023-06-10T03:08:40;17.60;;;11.80;;
18776;SDS011;9517;51.174;4.160;2023-06-10T03:11:07;16.93;;;11.07;;
18776;SDS011;9517;51.174;4.160;2023-06-10T03:13:35;15.90;;;11.03;;
18776;SDS011;9517;51.174;4.160;2023-06-10T03:16:02;19.73;;;11.33;;
18776;SDS011;9517;51.174;4.160;2023-06-10T03:18:30;18.17;;;11.37;;
18776;SDS011;9517;51.174;4.160;2023-06-10T03:20:58;17.07;;;11.10;;
18776;SDS011;9517;51.174;4.160;2023-06-10T03:23:25;20.50;;;11.87;;
18776;SDS011;9517;51.174;4.160;2023-06-10T03:25:54;18.57;;;11.43;;
18776;SDS011;9517;51.174;4.160;2023-06-10T03:28:21;17.87;;;11.47;;
18776;SDS011;9517;51.174;4.160;2023-06-10T03:30:48;19.20;;;11.03;;
18776;SDS011;9517;51.174;4.160;2023-06-10T03:33:16;23.77;;;12.10;;
18776;SDS011;9517;51.174;4.160;2023-06-10T03:35:44;21.17;;;11.50;;
18776;SDS011;9517;51.174;4.160;2023-06-10T03:38:12;18.53;;;11.47;;
18776;SDS011;9517;51.174;4.160;2023-06-10T03:40:40;21.07;;;12.13;;
18776;SDS011;9517;51.174;4.160;2023-06-10T03:43:07;20.73;;;12.10;;
18776;SDS011;9517;51.174;4.160;2023-06-10T03:45:34;18.53;;;12.30;;
18776;SDS011;9517;51.174;4.160;2023-06-10T03:48:01;18.77;;;12.23;;
18776;SDS011;9517;51.174;4.160;2023-06-10T03:50:29;26.30;;;13.50;;
18776;SDS011;9517;51.174;4.160;2023-06-10T03:52:57;22.53;;;12.90;;
18776;SDS011;9517;51.174;4.160;2023-06-10T03:55:26;20.83;;;12.93;;
18776;SDS011;9517;51.174;4.160;2023-06-10T03:57:53;17.93;;;12.47;;
18776;SDS011;9517;51.174;4.160;2023-06-10T04:00:20;17.53;;;12.20;;
18776;SDS011;9517;51.174;4.160;2023-06-10T04:02:47;19.77;;;12.60;;
18776;SDS011;9517;51.174;4.160;2023-06-10T04:05:17;18.20;;;12.77;;
18776;SDS011;9517;51.174;4.160;2023-06-10T04:07:48;19.43;;;12.03;;
18776;SDS011;9517;51.174;4.160;2023-06-10T04:10:16;20.53;;;11.60;;
18776;SDS011;9517;51.174;4.160;2023-06-10T04:12:44;17.83;;;12.10;;
18776;SDS011;9517;51.174;4.160;2023-06-10T04:15:14;19.07;;;11.83;;
18776;SDS011;9517;51.174;4.160;2023-06-10T04:17:42;17.77;;;12.00;;
18776;SDS011;9517;51.174;4.160;2023-06-10T04:20:09;22.03;;;11.67;;
18776;SDS011;9517;51.174;4.160;2023-06-10T04:22:36;22.13;;;13.00;;
18776;SDS011;9517;51.174;4.160;2023-06-10T04:25:04;20.47;;;12.67;;
18776;SDS011;9517;51.174;4.160;2023-06-10T04:27:32;19.87;;;11.97;;
18776;SDS011;9517;51.174;4.160;2023-06-10T04:30:01;20.40;;;11.83;;
18776;SDS011;9517;51.174;4.160;2023-06-10T04:32:29;19.33;;;11.90;;
18776;SDS011;9517;51.174;4.160;2023-06-10T04:34:56;17.50;;;11.50;;
18776;SDS011;9517;51.174;4.160;2023-06-10T04:37:24;19.47;;;12.53;;
18776;SDS011;9517;51.174;4.160;2023-06-10T04:39:51;19.37;;;12.80;;
18776;SDS011;9517;51.174;4.160;2023-06-10T04:42:18;22.00;;;13.73;;
18776;SDS011;9517;51.174;4.160;2023-06-10T04:44:49;19.73;;;13.00;;
18776;SDS011;9517;51.174;4.160;2023-06-10T04:47:17;18.53;;;12.40;;
18776;SDS011;9517;51.174;4.160;2023-06-10T04:49:45;20.13;;;13.07;;
18776;SDS011;9517;51.174;4.160;2023-06-10T04:52:13;22.63;;;13.73;;
18776;SDS011;9517;51.174;4.160;2023-06-10T04:54:40;22.47;;;12.90;;
18776;SDS011;9517;51.174;4.160;2023-06-10T04:57:07;20.40;;;12.27;;
18776;SDS011;9517;51.174;4.160;2023-06-10T04:59:34;18.70;;;11.97;;
18776;SDS011;9517;51.174;4.160;2023-06-10T05:02:03;24.53;;;11.90;;
18776;SDS011;9517;51.174;4.160;2023-06-10T05:04:32;25.17;;;12.43;;
18776;SDS011;9517;51.174;4.160;2023-06-10T05:06:59;19.37;;;12.00;;
18776;SDS011;9517;51.174;4.160;2023-06-10T05:09:26;20.37;;;11.50;;
18776;SDS011;9517;51.174;4.160;2023-06-10T05:11:53;20.80;;;11.83;;
18776;SDS011;9517;51.174;4.160;2023-06-10T05:14:22;21.20;;;12.50;;
18776;SDS011;9517;51.174;4.160;2023-06-10T05:16:49;20.10;;;12.10;;
18776;SDS011;9517;51.174;4.160;2023-06-10T05:19:16;15.87;;;11.23;;
18776;SDS011;9517;51.174;4.160;2023-06-10T05:21:45;20.43;;;11.77;;
18776;SDS011;9517;51.174;4.160;2023-06-10T05:24:13;16.73;;;11.47;;
18776;SDS011;9517;51.174;4.160;2023-06-10T05:26:40;17.70;;;11.27;;
18776;SDS011;9517;51.174;4.160;2023-06-10T05:29:07;18.63;;;11.63;;
18776;SDS011;9517;51.174;4.160;2023-06-10T05:31:35;17.70;;;11.47;;
18776;SDS011;9517;51.174;4.160;2023-06-10T05:34:02;17.23;;;11.50;;
18776;SDS011;9517;51.174;4.160;2023-06-10T05:36:33;16.87;;;11.17;;
18776;SDS011;9517;51.174;4.160;2023-06-10T05:39:02;21.00;;;11.80;;
18776;SDS011;9517;51.174;4.160;2023-06-10T05:41:29;19.93;;;11.57;;
18776;SDS011;9517;51.174;4.160;2023-06-10T05:43:56;18.00;;;10.73;;
18776;SDS011;9517;51.174;4.160;2023-06-10T05:46:23;19.83;;;10.83;;
18776;SDS011;9517;51.174;4.160;2023-06-10T05:48:51;21.97;;;10.53;;
18776;SDS011;9517;51.174;4.160;2023-06-10T05:51:18;18.57;;;11.60;;
18776;SDS011;9517;51.174;4.160;2023-06-10T05:53:47;18.10;;;11.07;;
18776;SDS011;9517;51.174;4.160;2023-06-10T05:56:16;17.23;;;11.10;;
18776;SDS011;9517;51.174;4.160;2023-06-10T05:58:43;19.63;;;11.73;;
18776;SDS011;9517;51.174;4.160;2023-06-10T06:01:10;18.23;;;12.17;;
18776;SDS011;9517;51.174;4.160;2023-06-10T06:03:38;19.10;;;11.37;;
18776;SDS011;9517;51.174;4.160;2023-06-10T06:06:05;17.17;;;11.60;;
18776;SDS011;9517;51.174;4.160;2023-06-10T06:08:32;17.90;;;10.87;;
18776;SDS011;9517;51.174;4.160;2023-06-10T06:10:59;20.27;;;12.17;;
18776;SDS011;9517;51.174;4.160;2023-06-10T06:13:28;16.27;;;11.57;;
18776;SDS011;9517;51.174;4.160;2023-06-10T06:15:55;16.63;;;11.90;;
18776;SDS011;9517;51.174;4.160;2023-06-10T06:18:22;19.03;;;11.23;;
18776;SDS011;9517;51.174;4.160;2023-06-10T06:20:49;19.17;;;10.80;;
18776;SDS011;9517;51.174;4.160;2023-06-10T06:23:16;17.90;;;10.83;;
18776;SDS011;9517;51.174;4.160;2023-06-10T06:25:43;17.87;;;11.23;;
18776;SDS011;9517;51.174;4.160;2023-06-10T06:28:11;16.93;;;10.37;;
18776;SDS011;9517;51.174;4.160;2023-06-10T06:30:39;23.10;;;11.67;;
18776;SDS011;9517;51.174;4.160;2023-06-10T06:33:06;18.45;;;11.10;;
18776;SDS011;9517;51.174;4.160;2023-06-10T06:35:34;20.47;;;11.17;;
18776;SDS011;9517;51.174;4.160;2023-06-10T06:38:03;17.08;;;10.73;;
18776;SDS011;9517;51.174;4.160;2023-06-10T06:40:30;20.35;;;11.88;;
18776;SDS011;9517;51.174;4.160;2023-06-10T06:42:59;18.40;;;10.82;;
18776;SDS011;9517;51.174;4.160;2023-06-10T06:45:26;20.93;;;12.13;;
18776;SDS011;9517;51.174;4.160;2023-06-10T06:47:55;17.98;;;10.82;;
18776;SDS011;9517;51.174;4.160;2023-06-10T06:50:22;19.15;;;11.52;;
18776;SDS011;9517;51.174;4.160;2023-06-10T06:52:49;18.40;;;11.32;;
18776;SDS011;9517;51.174;4.160;2023-06-10T06:55:16;17.35;;;10.77;;
18776;SDS011;9517;51.174;4.160;2023-06-10T06:57:43;18.02;;;10.38;;
18776;SDS011;9517;51.174;4.160;2023-06-10T07:00:10;18.67;;;11.00;;
18776;SDS011;9517;51.174;4.160;2023-06-10T07:02:38;16.33;;;10.45;;
18776;SDS011;9517;51.174;4.160;2023-06-10T07:05:07;18.63;;;11.07;;
18776;SDS011;9517;51.174;4.160;2023-06-10T07:07:35;17.88;;;10.73;;
18776;SDS011;9517;51.174;4.160;2023-06-10T07:10:02;15.15;;;10.00;;
18776;SDS011;9517;51.174;4.160;2023-06-10T07:12:29;17.95;;;10.98;;
18776;SDS011;9517;51.174;4.160;2023-06-10T07:14:56;17.73;;;10.55;;
18776;SDS011;9517;51.174;4.160;2023-06-10T07:17:23;16.42;;;10.43;;
18776;SDS011;9517;51.174;4.160;2023-06-10T07:19:52;17.05;;;9.95;;
18776;SDS011;9517;51.174;4.160;2023-06-10T07:22:23;16.70;;;10.27;;
18776;SDS011;9517;51.174;4.160;2023-06-10T07:24:51;20.30;;;10.98;;
18776;SDS011;9517;51.174;4.160;2023-06-10T07:27:19;18.52;;;10.68;;
18776;SDS011;9517;51.174;4.160;2023-06-10T07:29:47;16.05;;;10.55;;
18776;SDS011;9517;51.174;4.160;2023-06-10T07:32:14;18.55;;;9.77;;
18776;SDS011;9517;51.174;4.160;2023-06-10T07:34:41;15.27;;;10.48;;
18776;SDS011;9517;51.174;4.160;2023-06-10T07:37:08;16.75;;;10.00;;
18776;SDS011;9517;51.174;4.160;2023-06-10T07:39:37;14.90;;;10.25;;
18776;SDS011;9517;51.174;4.160;2023-06-10T07:42:08;35.00;;;10.57;;
18776;SDS011;9517;51.174;4.160;2023-06-10T07:44:35;16.92;;;10.38;;
18776;SDS011;9517;51.174;4.160;2023-06-10T07:47:02;19.92;;;10.57;;
18776;SDS011;9517;51.174;4.160;2023-06-10T07:49:30;17.50;;;10.20;;
18776;SDS011;9517;51.174;4.160;2023-06-10T07:51:57;20.45;;;9.95;;
18776;SDS011;9517;51.174;4.160;2023-06-10T07:54:24;19.17;;;10.15;;
18776;SDS011;9517;51.174;4.160;2023-06-10T07:56:53;14.00;;;9.45;;
18776;SDS011;9517;51.174;4.160;2023-06-10T07:59:20;17.27;;;10.00;;
18776;SDS011;9517;51.174;4.160;2023-06-10T08:01:47;17.45;;;9.35;;
18776;SDS011;9517;51.174;4.160;2023-06-10T08:04:14;18.00;;;9.35;;
18776;SDS011;9517;51.174;4.160;2023-06-10T08:06:42;15.02;;;9.52;;
18776;SDS011;9517;51.174;4.160;2023-06-10T08:09:09;17.38;;;8.75;;
18776;SDS011;9517;51.174;4.160;2023-06-10T08:11:36;14.02;;;9.60;;
18776;SDS011;9517;51.174;4.160;2023-06-10T08:14:05;15.70;;;8.85;;
18776;SDS011;9517;51.174;4.160;2023-06-10T08:16:32;17.25;;;9.65;;
18776;SDS011;9517;51.174;4.160;2023-06-10T08:18:59;13.15;;;8.30;;
18776;SDS011;9517;51.174;4.160;2023-06-10T08:21:26;14.68;;;8.52;;
18776;SDS011;9517;51.174;4.160;2023-06-10T08:23:54;19.73;;;9.15;;
18776;SDS011;9517;51.174;4.160;2023-06-10T08:26:21;14.32;;;8.60;;
18776;SDS011;9517;51.174;4.160;2023-06-10T08:28:48;17.02;;;7.75;;
18776;SDS011;9517;51.174;4.160;2023-06-10T08:31:17;17.17;;;8.35;;
18776;SDS011;9517;51.174;4.160;2023-06-10T08:33:44;14.13;;;8.50;;
18776;SDS011;9517;51.174;4.160;2023-06-10T08:36:11;13.18;;;8.35;;
18776;SDS011;9517;51.174;4.160;2023-06-10T08:38:39;18.55;;;8.18;;
18776;SDS011;9517;51.174;4.160;2023-06-10T08:41:06;14.60;;;8.35;;
18776;SDS011;9517;51.174;4.160;2023-06-10T08:43:37;12.73;;;7.28;;
18776;SDS011;9517;51.174;4.160;2023-06-10T08:46:08;13.55;;;8.57;;
18776;SDS011;9517;51.174;4.160;2023-06-10T08:48:39;15.43;;;7.57;;
18776;SDS011;9517;51.174;4.160;2023-06-10T08:51:09;12.93;;;7.80;;
18776;SDS011;9517;51.174;4.160;2023-06-10T08:53:38;14.60;;;7.40;;
18776;SDS011;9517;51.174;4.160;2023-06-10T08:56:11;15.25;;;7.43;;
18776;SDS011;9517;51.174;4.160;2023-06-10T08:58:39;15.65;;;8.07;;
18776;SDS011;9517;51.174;4.160;2023-06-10T09:01:08;14.48;;;7.80;;
18776;SDS011;9517;51.174;4.160;2023-06-10T09:03:36;12.63;;;7.57;;
18776;SDS011;9517;51.174;4.160;2023-06-10T09:06:05;12.77;;;7.70;;
18776;SDS011;9517;51.174;4.160;2023-06-10T09:08:33;12.95;;;7.80;;
18776;SDS011;9517;51.174;4.160;2023-06-10T09:11:01;13.82;;;7.57;;
18776;SDS011;9517;51.174;4.160;2023-06-10T09:13:28;13.57;;;7.10;;
18776;SDS011;9517;51.174;4.160;2023-06-10T09:15:56;13.05;;;7.22;;
18776;SDS011;9517;51.174;4.160;2023-06-10T09:18:26;16.88;;;7.35;;
18776;SDS011;9517;51.174;4.160;2023-06-10T09:20:55;17.33;;;7.97;;
18776;SDS011;9517;51.174;4.160;2023-06-10T09:23:22;13.32;;;6.97;;
18776;SDS011;9517;51.174;4.160;2023-06-10T09:25:55;11.93;;;6.70;;
18776;SDS011;9517;51.174;4.160;2023-06-10T09:28:23;14.63;;;7.82;;
18776;SDS011;9517;51.174;4.160;2023-06-10T09:31:00;13.73;;;7.25;;
18776;SDS011;9517;51.174;4.160;2023-06-10T09:33:29;11.27;;;7.28;;
18776;SDS011;9517;51.174;4.160;2023-06-10T09:35:59;11.35;;;6.50;;
18776;SDS011;9517;51.174;4.160;2023-06-10T09:38:31;12.00;;;6.25;;
18776;SDS011;9517;51.174;4.160;2023-06-10T09:41:00;13.60;;;6.95;;
18776;SDS011;9517;51.174;4.160;2023-06-10T09:43:38;15.00;;;6.60;;
18776;SDS011;9517;51.174;4.160;2023-06-10T09:46:07;11.45;;;6.70;;
18776;SDS011;9517;51.174;4.160;2023-06-10T09:48:40;12.80;;;6.28;;
18776;SDS011;9517;51.174;4.160;2023-06-10T09:51:12;16.58;;;6.82;;
18776;SDS011;9517;51.174;4.160;2023-06-10T09:53:42;14.38;;;6.88;;
18776;SDS011;9517;51.174;4.160;2023-06-10T09:56:09;12.77;;;6.28;;
18776;SDS011;9517;51.174;4.160;2023-06-10T09:58:37;12.85;;;6.88;;
18776;SDS011;9517;51.174;4.160;2023-06-10T10:01:05;15.98;;;6.80;;
18776;SDS011;9517;51.174;4.160;2023-06-10T10:03:32;13.30;;;7.22;;
18776;SDS011;9517;51.174;4.160;2023-06-10T10:06:00;13.23;;;7.57;;
18776;SDS011;9517;51.174;4.160;2023-06-10T10:08:28;11.00;;;6.63;;
18776;SDS011;9517;51.174;4.160;2023-06-10T10:10:56;12.60;;;6.97;;
18776;SDS011;9517;51.174;4.160;2023-06-10T10:13:24;14.05;;;6.78;;
18776;SDS011;9517;51.174;4.160;2023-06-10T10:15:53;12.30;;;6.68;;
18776;SDS011;9517;51.174;4.160;2023-06-10T10:18:25;14.68;;;7.68;;
18776;SDS011;9517;51.174;4.160;2023-06-10T10:20:58;13.77;;;7.65;;
18776;SDS011;9517;51.174;4.160;2023-06-10T10:23:35;16.63;;;7.25;;
18776;SDS011;9517;51.174;4.160;2023-06-10T10:26:07;14.45;;;7.53;;
18776;SDS011;9517;51.174;4.160;2023-06-10T10:28:38;12.02;;;7.55;;
18776;SDS011;9517;51.174;4.160;2023-06-10T10:31:12;12.90;;;7.13;;
18776;SDS011;9517;51.174;4.160;2023-06-10T10:33:46;14.73;;;7.32;;
18776;SDS011;9517;51.174;4.160;2023-06-10T10:36:21;10.70;;;6.55;;
18776;SDS011;9517;51.174;4.160;2023-06-10T10:38:50;14.38;;;7.60;;
18776;SDS011;9517;51.174;4.160;2023-06-10T10:41:17;18.33;;;7.60;;
18776;SDS011;9517;51.174;4.160;2023-06-10T10:43:46;11.93;;;6.78;;
18776;SDS011;9517;51.174;4.160;2023-06-10T10:46:16;14.05;;;6.82;;
18776;SDS011;9517;51.174;4.160;2023-06-10T10:48:44;13.85;;;7.22;;
18776;SDS011;9517;51.174;4.160;2023-06-10T10:51:12;15.38;;;7.47;;
18776;SDS011;9517;51.174;4.160;2023-06-10T10:53:42;14.45;;;7.20;;
18776;SDS011;9517;51.174;4.160;2023-06-10T10:56:13;12.60;;;7.35;;
18776;SDS011;9517;51.174;4.160;2023-06-10T10:58:43;14.63;;;6.97;;
18776;SDS011;9517;51.174;4.160;2023-06-10T11:01:39;15.18;;;7.18;;
18776;SDS011;9517;51.174;4.160;2023-06-10T11:04:07;12.93;;;7.55;;
18776;SDS011;9517;51.174;4.160;2023-06-10T11:06:35;20.30;;;6.82;;
18776;SDS011;9517;51.174;4.160;2023-06-10T11:09:07;15.00;;;6.68;;
18776;SDS011;9517;51.174;4.160;2023-06-10T11:11:54;12.95;;;7.10;;
18776;SDS011;9517;51.174;4.160;2023-06-10T11:14:28;10.85;;;6.50;;
18776;SDS011;9517;51.174;4.160;2023-06-10T11:16:59;15.52;;;7.50;;
18776;SDS011;9517;51.174;4.160;2023-06-10T11:19:32;13.73;;;6.70;;
18776;SDS011;9517;51.174;4.160;2023-06-10T11:22:01;15.98;;;6.78;;
18776;SDS011;9517;51.174;4.160;2023-06-10T11:24:29;13.73;;;6.50;;
18776;SDS011;9517;51.174;4.160;2023-06-10T11:30:00;12.68;;;6.28;;
18776;SDS011;9517;51.174;4.160;2023-06-10T11:32:45;13.02;;;6.53;;
18776;SDS011;9517;51.174;4.160;2023-06-10T11:35:18;12.85;;;6.50;;
18776;SDS011;9517;51.174;4.160;2023-06-10T11:37:46;17.45;;;6.47;;
18776;SDS011;9517;51.174;4.160;2023-06-10T11:40:14;12.45;;;6.78;;
18776;SDS011;9517;51.174;4.160;2023-06-10T11:42:43;14.90;;;6.35;;
18776;SDS011;9517;51.174;4.160;2023-06-10T11:45:14;11.45;;;6.32;;
18776;SDS011;9517;51.174;4.160;2023-06-10T11:47:54;11.00;;;6.30;;
18776;SDS011;9517;51.174;4.160;2023-06-10T11:50:27;11.40;;;6.35;;
18776;SDS011;9517;51.174;4.160;2023-06-10T11:52:55;15.57;;;7.57;;
18776;SDS011;9517;51.174;4.160;2023-06-10T11:55:23;14.40;;;6.78;;
18776;SDS011;9517;51.174;4.160;2023-06-10T11:57:52;13.13;;;6.57;;
18776;SDS011;9517;51.174;4.160;2023-06-10T12:00:23;11.23;;;6.20;;
18776;SDS011;9517;51.174;4.160;2023-06-10T12:02:54;14.23;;;6.65;;
18776;SDS011;9517;51.174;4.160;2023-06-10T12:05:23;12.57;;;6.40;;
18776;SDS011;9517;51.174;4.160;2023-06-10T12:10:40;12.70;;;6.30;;
18776;SDS011;9517;51.174;4.160;2023-06-10T12:13:09;11.82;;;6.88;;
18776;SDS011;9517;51.174;4.160;2023-06-10T12:15:36;12.65;;;6.55;;
18776;SDS011;9517;51.174;4.160;2023-06-10T12:18:03;11.30;;;6.53;;
18776;SDS011;9517;51.174;4.160;2023-06-10T12:20:31;12.65;;;6.60;;
18776;SDS011;9517;51.174;4.160;2023-06-10T12:22:59;13.38;;;6.00;;
18776;SDS011;9517;51.174;4.160;2023-06-10T12:25:27;13.52;;;7.22;;
18776;SDS011;9517;51.174;4.160;2023-06-10T12:27:55;12.27;;;5.80;;
18776;SDS011;9517;51.174;4.160;2023-06-10T12:30:26;13.85;;;6.25;;
18776;SDS011;9517;51.174;4.160;2023-06-10T12:32:54;10.68;;;6.35;;
18776;SDS011;9517;51.174;4.160;2023-06-10T12:35:22;11.77;;;6.18;;
18776;SDS011;9517;51.174;4.160;2023-06-10T12:37:57;14.82;;;6.30;;
18776;SDS011;9517;51.174;4.160;2023-06-10T12:40:26;10.93;;;6.82;;
18776;SDS011;9517;51.174;4.160;2023-06-10T12:42:55;13.02;;;6.47;;
18776;SDS011;9517;51.174;4.160;2023-06-10T12:45:30;13.95;;;7.05;;
18776;SDS011;9517;51.174;4.160;2023-06-10T12:48:04;11.30;;;6.50;;
18776;SDS011;9517;51.174;4.160;2023-06-10T12:50:34;19.33;;;7.40;;
18776;SDS011;9517;51.174;4.160;2023-06-10T12:53:02;13.98;;;6.53;;
18776;SDS011;9517;51.174;4.160;2023-06-10T12:55:29;12.50;;;7.10;;
18776;SDS011;9517;51.174;4.160;2023-06-10T12:57:57;11.57;;;6.45;;
18776;SDS011;9517;51.174;4.160;2023-06-10T13:00:25;10.85;;;5.93;;
18776;SDS011;9517;51.174;4.160;2023-06-10T13:02:56;12.20;;;6.50;;
18776;SDS011;9517;51.174;4.160;2023-06-10T13:05:25;10.77;;;5.78;;
18776;SDS011;9517;51.174;4.160;2023-06-10T13:07:52;13.40;;;6.25;;
18776;SDS011;9517;51.174;4.160;2023-06-10T13:10:20;11.40;;;6.03;;
18776;SDS011;9517;51.174;4.160;2023-06-10T13:12:47;12.10;;;6.50;;
18776;SDS011;9517;51.174;4.160;2023-06-10T13:15:14;13.65;;;6.32;;
18776;SDS011;9517;51.174;4.160;2023-06-10T13:17:42;11.25;;;6.07;;
18776;SDS011;9517;51.174;4.160;2023-06-10T13:20:12;12.98;;;6.47;;
18776;SDS011;9517;51.174;4.160;2023-06-10T13:22:39;12.13;;;5.90;;
18776;SDS011;9517;51.174;4.160;2023-06-10T13:25:06;16.65;;;6.60;;
18776;SDS011;9517;51.174;4.160;2023-06-10T13:34:36;14.48;;;6.85;;
18776;SDS011;9517;51.174;4.160;2023-06-10T13:41:05;10.73;;;5.80;;
18776;SDS011;9517;51.174;4.160;2023-06-10T13:43:57;12.30;;;6.15;;
18776;SDS011;9517;51.174;4.160;2023-06-10T13:46:41;12.18;;;6.30;;
18776;SDS011;9517;51.174;4.160;2023-06-10T13:49:14;11.18;;;6.20;;
18776;SDS011;9517;51.174;4.160;2023-06-10T13:51:43;11.02;;;6.07;;
18776;SDS011;9517;51.174;4.160;2023-06-10T13:54:10;12.50;;;6.18;;
18776;SDS011;9517;51.174;4.160;2023-06-10T13:56:41;14.70;;;6.43;;
18776;SDS011;9517;51.174;4.160;2023-06-10T13:59:08;13.20;;;6.70;;
18776;SDS011;9517;51.174;4.160;2023-06-10T14:01:35;9.57;;;6.47;;
18776;SDS011;9517;51.174;4.160;2023-06-10T14:04:02;12.60;;;6.47;;
18776;SDS011;9517;51.174;4.160;2023-06-10T14:06:29;12.57;;;6.60;;
18776;SDS011;9517;51.174;4.160;2023-06-10T14:08:57;13.20;;;6.47;;
18776;SDS011;9517;51.174;4.160;2023-06-10T14:11:24;12.57;;;6.15;;
18776;SDS011;9517;51.174;4.160;2023-06-10T14:13:53;11.82;;;6.53;;
18776;SDS011;9517;51.174;4.160;2023-06-10T14:16:21;12.18;;;6.20;;
18776;SDS011;9517;51.174;4.160;2023-06-10T14:18:48;11.77;;;6.13;;
18776;SDS011;9517;51.174;4.160;2023-06-10T14:21:16;10.88;;;6.43;;
18776;SDS011;9517;51.174;4.160;2023-06-10T14:23:43;10.82;;;6.15;;
18776;SDS011;9517;51.174;4.160;2023-06-10T14:26:10;14.80;;;6.80;;
18776;SDS011;9517;51.174;4.160;2023-06-10T14:28:37;15.98;;;6.28;;
18776;SDS011;9517;51.174;4.160;2023-06-10T14:31:06;12.30;;;6.40;;
18776;SDS011;9517;51.174;4.160;2023-06-10T14:33:33;16.25;;;6.70;;
18776;SDS011;9517;51.174;4.160;2023-06-10T14:36:00;13.02;;;6.70;;
18776;SDS011;9517;51.174;4.160;2023-06-10T14:38:27;11.60;;;6.10;;
18776;SDS011;9517;51.174;4.160;2023-06-10T14:40:54;16.33;;;6.90;;
18776;SDS011;9517;51.174;4.160;2023-06-10T14:43:21;12.50;;;6.68;;
18776;SDS011;9517;51.174;4.160;2023-06-10T14:45:48;12.55;;;6.28;;
18776;SDS011;9517;51.174;4.160;2023-06-10T14:48:17;12.52;;;6.75;;
18776;SDS011;9517;51.174;4.160;2023-06-10T14:50:44;10.90;;;6.30;;
18776;SDS011;9517;51.174;4.160;2023-06-10T14:53:15;10.57;;;6.70;;
18776;SDS011;9517;51.174;4.160;2023-06-10T14:55:42;12.50;;;6.47;;
18776;SDS011;9517;51.174;4.160;2023-06-10T14:58:10;12.55;;;6.32;;
18776;SDS011;9517;51.174;4.160;2023-06-10T15:00:37;14.25;;;7.22;;
18776;SDS011;9517;51.174;4.160;2023-06-10T15:03:04;10.95;;;6.90;;
18776;SDS011;9517;51.174;4.160;2023-06-10T15:05:32;12.15;;;6.93;;
18776;SDS011;9517;51.174;4.160;2023-06-10T15:07:59;11.20;;;6.15;;